Time;durP1;ratioP1;P1;durP2;ratioP2;P2;SDS_P1;SDS_P2;PMS_P1;PMS_P2;Temp;Humidity;BMP_temperature;BMP_pressure;BME280_temperature;BME280_humidity;BME280_pressure;Samples;Min_cycle;Max_cycle;Signal;HPM_P1;HPM_P2
2022/10/12 00:01:34;;;;;;;;;;;;;;;14.05;67.75;102149.84;4968516;28;119335;-75
2022/10/12 00:03:59;;;;;;;;;;;;;;;14.00;67.72;102127.56;4957256;28;119787;-75
2022/10/12 00:06:33;;;;;;;;;;;;;;;14.13;67.91;102150.41;4964431;28;119763;-75
2022/10/12 00:08:59;;;;;;;;;;;;;;;14.14;67.59;102144.44;4969582;28;120005;-75
2022/10/12 00:11:26;;;;;;;;;;;;;;;14.16;68.09;102146.00;4971122;28;119800;-75
2022/10/12 00:13:52;;;;;;;;;;;;;;;14.16;67.91;102146.00;4971921;28;119458;-75
2022/10/12 00:16:19;;;;;;;;;;;;;;;14.18;67.71;102154.59;4972395;28;119839;-75
2022/10/12 00:18:48;;;;;;;;;;;;;;;14.19;67.98;102156.16;4957629;28;120235;-75
2022/10/12 00:21:15;;;;;;;;;;;;;;;14.22;68.21;102160.81;4961856;28;121421;-75
2022/10/12 00:23:41;;;;;;;;;;;;;;;14.23;67.71;102157.59;4957180;28;119797;-75
2022/10/12 00:26:08;;;;;;;;;;;;;;;14.25;67.78;102154.41;4975006;28;119314;-75
2022/10/12 00:28:33;;;;;;;;;;;;;;;14.25;67.80;102154.41;4956267;28;119701;-75
2022/10/12 00:30:59;;;;;;;;;;;;;;;14.25;67.66;102155.19;4955775;28;119686;-75
2022/10/12 00:33:26;;;;;;;;;;;;;;;14.26;67.96;102161.47;4952354;28;120934;-75
2022/10/12 00:35:53;;;;;;;;;;;;;;;14.27;67.64;102163.03;4977147;28;121345;-75
2022/10/12 00:38:19;;;;;;;;;;;;;;;14.27;68.00;102154.75;4974962;28;119860;-75
2022/10/12 00:40:45;;;;;;;;;;;;;;;14.27;67.84;102152.75;4972261;28;119827;-75
2022/10/12 00:43:29;;;;;;;;;;;;;;;14.29;67.92;102160.59;4950644;28;119854;-75
2022/10/12 00:45:56;;;;;;;;;;;;;;;14.31;67.86;102155.41;4969839;28;119980;-75
2022/10/12 00:48:22;;;;;;;;;;;;;;;14.34;67.91;102162.78;4955345;28;119970;-75
2022/10/12 00:50:48;;;;;;;;;;;;;;;14.35;67.72;102159.59;4966331;28;119914;-75
2022/10/12 00:53:15;;;;;;;;;;;;;;;14.38;67.63;102163.47;4965605;28;119712;-75
2022/10/12 00:55:49;;;;;;;;;;;;;;;14.38;67.68;102155.94;4966916;28;120517;-76
2022/10/12 00:58:15;;;;;;;;;;;;;;;14.40;67.67;102170.09;4952509;28;120166;-76
2022/10/12 01:00:41;;;;;;;;;;;;;;;14.42;68.13;102164.13;4940880;28;120017;-75
2022/10/12 01:03:08;;;;;;;;;;;;;;;14.42;67.98;102162.13;4957270;28;120163;-75
2022/10/12 01:05:34;;;;;;;;;;;;;;;14.46;67.60;102161.31;4968733;28;119691;-75
2022/10/12 01:08:29;;;;;;;;;;;;;;;14.46;67.78;102159.31;4936230;28;120712;-75
2022/10/12 01:11:13;;;;;;;;;;;;;;;14.47;67.90;102149.81;4966857;28;119675;-76
2022/10/12 01:13:38;;;;;;;;;;;;;;;14.47;68.12;102155.34;4931891;28;120930;-75
2022/10/12 01:16:10;;;;;;;;;;;;;;;14.45;68.01;102146.72;4952886;28;120854;-75
2022/10/12 01:18:59;;;;;;;;;;;;;;;14.42;67.46;102145.56;4957652;28;119916;-76
2022/10/12 01:21:35;;;;;;;;;;;;;;;14.40;67.68;102144.47;4951587;28;119974;-75
2022/10/12 01:24:01;;;;;;;;;;;;;;;14.35;67.58;102137.50;4964866;28;119731;-75
2022/10/12 01:26:45;;;;;;;;;;;;;;;14.31;67.48;102136.06;4950477;28;120041;-76
2022/10/12 01:29:17;;;;;;;;;;;;;;;14.24;67.69;102139.06;4958974;28;120074;-75
2022/10/12 01:31:51;;;;;;;;;;;;;;;14.20;67.89;102141.16;4967483;28;119768;-75
2022/10/12 01:34:47;;;;;;;;;;;;;;;14.17;68.04;102139.25;4966869;28;119935;-75
2022/10/12 01:37:12;;;;;;;;;;;;;;;14.13;67.55;102137.38;4976187;28;120473;-75
2022/10/12 01:39:42;;;;;;;;;;;;;;;14.11;67.59;102128.78;4960026;28;119780;-75
2022/10/12 01:42:10;;;;;;;;;;;;;;;14.09;68.08;102136.72;4953571;28;119368;-76
2022/10/12 01:44:36;;;;;;;;;;;;;;;14.07;68.02;102130.88;4959267;28;119849;-76
2022/10/12 01:47:01;;;;;;;;;;;;;;;14.05;67.62;102130.53;4958094;28;119601;-76
2022/10/12 01:49:29;;;;;;;;;;;;;;;14.00;67.61;102128.31;4939728;28;120742;-75
2022/10/12 01:51:55;;;;;;;;;;;;;;;13.96;67.79;102133.19;4954841;28;119968;-75
2022/10/12 01:54:20;;;;;;;;;;;;;;;13.93;67.60;102136.00;4954579;28;120367;-75
2022/10/12 01:56:52;;;;;;;;;;;;;;;13.90;68.06;102120.34;4970655;28;120220;-76
2022/10/12 01:59:38;;;;;;;;;;;;;;;13.86;68.03;102117.69;4962715;28;119653;-76
2022/10/12 02:02:12;;;;;;;;;;;;;;;13.85;68.07;102123.66;4933010;28;119780;-75
2022/10/12 02:04:43;;;;;;;;;;;;;;;13.82;67.72;102117.03;4944294;28;121443;-75
2022/10/12 02:07:29;;;;;;;;;;;;;;;13.68;67.68;102107.16;4975379;28;119198;-75
2022/10/12 02:09:57;;;;;;;;;;;;;;;13.75;67.55;102120.00;4949265;28;121783;-75
2022/10/12 02:12:24;;;;;;;;;;;;;;;13.71;67.58;102108.28;4968442;28;119841;-75
2022/10/12 02:14:53;;;;;;;;;;;;;;;13.68;67.80;102109.16;4970413;28;120355;-75
2022/10/12 02:17:20;;;;;;;;;;;;;;;13.63;67.94;102115.19;4967005;28;119870;-75
2022/10/12 02:19:56;;;;;;;;;;;;;;;13.61;67.88;102117.63;4972413;28;119890;-76
2022/10/12 02:22:29;;;;;;;;;;;;;;;13.58;68.36;102116.53;4937229;28;119983;-76
2022/10/12 02:24:56;;;;;;;;;;;;;;;13.56;67.92;102112.66;4970092;28;120425;-75
2022/10/12 02:27:23;;;;;;;;;;;;;;;13.55;68.25;102102.84;4937273;28;119721;-75
2022/10/12 02:29:49;;;;;;;;;;;;;;;13.54;68.49;102107.56;4976542;28;119752;-75
2022/10/12 02:32:24;;;;;;;;;;;;;;;13.55;68.37;102102.84;4971282;28;119563;-75
2022/10/12 02:35:10;;;;;;;;;;;;;;;13.54;68.43;102101.28;4970490;28;119810;-75
2022/10/12 02:37:49;;;;;;;;;;;;;;;13.54;68.43;102090.25;4969430;28;119785;-75
2022/10/12 02:40:21;;;;;;;;;;;;;;;13.52;68.03;102087.94;4970660;28;119551;-75
2022/10/12 02:42:52;;;;;;;;;;;;;;;13.51;68.23;102095.44;4967820;28;119793;-75
2022/10/12 02:45:18;;;;;;;;;;;;;;;13.51;68.42;102091.91;4950417;28;121565;-75
2022/10/12 02:47:45;;;;;;;;;;;;;;;13.51;68.47;102095.44;4973226;28;119496;-75
2022/10/12 02:50:11;;;;;;;;;;;;;;;13.54;69.04;102098.53;4961406;28;119884;-75
2022/10/12 02:52:37;;;;;;;;;;;;;;;13.59;68.74;102098.00;4974317;28;119828;-75
2022/10/12 02:55:03;;;;;;;;;;;;;;;13.61;68.57;102099.09;4975713;28;119287;-75
2022/10/12 02:57:29;;;;;;;;;;;;;;;13.65;68.79;102099.00;4969922;28;121038;-75
2022/10/12 02:59:54;;;;;;;;;;;;;;;13.67;68.70;102099.31;4970028;28;119374;-76
2022/10/12 03:02:20;;;;;;;;;;;;;;;13.63;68.38;102087.63;4970820;28;119703;-75
2022/10/12 03:04:45;;;;;;;;;;;;;;;13.72;68.99;102093.28;4954416;28;119954;-75
2022/10/12 03:07:11;;;;;;;;;;;;;;;13.73;68.55;102101.13;4970431;28;119812;-75
2022/10/12 03:09:36;;;;;;;;;;;;;;;13.76;68.59;102091.97;4971059;28;120177;-75
2022/10/12 03:12:02;;;;;;;;;;;;;;;13.78;69.21;102089.56;4964942;28;119820;-75
2022/10/12 03:14:28;;;;;;;;;;;;;;;13.79;68.69;102088.34;4993157;28;119605;-75
2022/10/12 03:16:53;;;;;;;;;;;;;;;13.79;68.88;102088.34;4976194;28;120289;-75
2022/10/12 03:19:22;;;;;;;;;;;;;;;13.79;68.57;102080.06;4977146;28;119738;-75
2022/10/12 03:21:47;;;;;;;;;;;;;;;13.80;68.54;102078.84;4952536;28;119760;-75
2022/10/12 03:24:13;;;;;;;;;;;;;;;13.82;68.95;102073.66;4950798;28;119886;-75
2022/10/12 03:26:39;;;;;;;;;;;;;;;13.86;68.93;102076.31;4969145;28;119873;-75
2022/10/12 03:29:04;;;;;;;;;;;;;;;13.88;68.80;102073.13;4969148;28;119377;-75
2022/10/12 03:31:30;;;;;;;;;;;;;;;13.90;68.98;102070.69;4950168;28;121654;-75
2022/10/12 03:33:55;;;;;;;;;;;;;;;13.93;68.94;102067.06;4949886;28;119803;-76
2022/10/12 03:36:44;;;;;;;;;;;;;;;13.95;69.20;102075.66;4963050;28;119831;-76
2022/10/12 03:39:10;;;;;;;;;;;;;;;13.97;69.14;102071.28;4970250;28;119513;-75
2022/10/12 03:41:35;;;;;;;;;;;;;;;14.01;69.29;102074.69;4983479;28;120394;-75
2022/10/12 03:44:01;;;;;;;;;;;;;;;14.05;69.03;102077.34;4970394;28;119673;-75
2022/10/12 03:46:26;;;;;;;;;;;;;;;14.08;69.02;102070.94;4960885;28;119695;-76
2022/10/12 03:48:52;;;;;;;;;;;;;;;14.11;69.09;102070.81;4953426;28;119572;-76
2022/10/12 03:51:17;;;;;;;;;;;;;;;14.12;68.77;102072.38;4954089;28;119983;-76
2022/10/12 03:53:43;;;;;;;;;;;;;;;14.14;69.08;102063.66;4969498;28;119867;-75
2022/10/12 03:56:09;;;;;;;;;;;;;;;14.15;68.42;102073.47;4969608;28;119395;-75
2022/10/12 03:58:36;;;;;;;;;;;;;;;14.17;68.56;102073.03;4952180;28;121797;-75
2022/10/12 04:01:01;;;;;;;;;;;;;;;14.14;68.51;102072.69;4952219;28;120173;-75
2022/10/12 04:03:27;;;;;;;;;;;;;;;14.11;68.50;102076.34;4968945;28;120110;-75
2022/10/12 04:05:56;;;;;;;;;;;;;;;14.09;68.55;102072.47;4977122;28;119518;-75
2022/10/12 04:08:22;;;;;;;;;;;;;;;14.06;68.22;102068.63;4971550;28;119379;-75
2022/10/12 04:10:51;;;;;;;;;;;;;;;14.03;68.12;102072.25;4968378;28;119751;-75
2022/10/12 04:13:17;;;;;;;;;;;;;;;14.01;68.06;102071.16;4965292;28;119921;-75
2022/10/12 04:15:43;;;;;;;;;;;;;;;13.99;68.37;102071.59;4952720;28;119809;-75
2022/10/12 04:18:08;;;;;;;;;;;;;;;13.98;68.48;102070.06;4971315;28;119922;-75
2022/10/12 04:20:34;;;;;;;;;;;;;;;13.97;68.22;102065.75;4969354;28;119463;-75
2022/10/12 04:23:00;;;;;;;;;;;;;;;13.97;68.36;102065.75;4976875;28;120047;-75
2022/10/12 04:25:25;;;;;;;;;;;;;;;13.98;68.17;102072.81;4963555;28;119976;-75
2022/10/12 04:27:51;;;;;;;;;;;;;;;13.99;68.44;102068.84;4969181;28;119610;-75
2022/10/12 04:30:16;;;;;;;;;;;;;;;14.01;68.56;102076.69;4975562;28;119278;-75
2022/10/12 04:32:42;;;;;;;;;;;;;;;14.01;68.24;102080.22;4971051;28;119728;-75
2022/10/12 04:35:08;;;;;;;;;;;;;;;14.02;68.61;102072.69;4935027;28;119489;-75
2022/10/12 04:37:35;;;;;;;;;;;;;;;14.02;68.73;102081.75;4967645;28;120267;-75
2022/10/12 04:40:02;;;;;;;;;;;;;;;14.02;68.78;102079.00;4978552;28;119496;-75
2022/10/12 04:42:28;;;;;;;;;;;;;;;14.03;68.30;102072.25;4971195;28;119972;-75
2022/10/12 04:44:53;;;;;;;;;;;;;;;14.04;68.61;102078.56;4968531;28;119903;-75
2022/10/12 04:47:32;;;;;;;;;;;;;;;14.03;68.44;102077.78;4963453;28;119671;-75
2022/10/12 04:49:58;;;;;;;;;;;;;;;14.02;68.92;102076.22;4975350;28;119472;-75
2022/10/12 04:52:42;;;;;;;;;;;;;;;14.04;68.89;102076.56;4959274;28;120289;-75
2022/10/12 04:55:07;;;;;;;;;;;;;;;14.06;68.77;102082.41;4953178;28;119524;-75
2022/10/12 04:57:33;;;;;;;;;;;;;;;14.10;68.88;102080.31;4968002;28;119872;-75
2022/10/12 04:59:59;;;;;;;;;;;;;;;14.14;69.04;102086.50;4972007;28;119757;-76
2022/10/12 05:02:24;;;;;;;;;;;;;;;14.17;68.78;102086.81;4982489;28;119358;-75
2022/10/12 05:04:51;;;;;;;;;;;;;;;14.19;69.01;102087.16;4978861;28;119473;-75
2022/10/12 05:07:16;;;;;;;;;;;;;;;14.21;69.08;102088.28;4977820;28;119649;-75
2022/10/12 05:09:51;;;;;;;;;;;;;;;14.22;68.87;102092.59;4954014;28;119414;-75
2022/10/12 05:12:16;;;;;;;;;;;;;;;14.25;68.99;102091.69;4974232;28;119646;-75
2022/10/12 05:14:43;;;;;;;;;;;;;;;14.28;68.98;102087.28;4967328;28;120554;-76
2022/10/12 05:17:09;;;;;;;;;;;;;;;14.31;69.50;102091.91;4956985;28;120306;-76
2022/10/12 05:19:43;;;;;;;;;;;;;;;14.33;69.25;102086.72;4981672;28;119990;-76
2022/10/12 05:22:09;;;;;;;;;;;;;;;14.34;69.13;102088.25;4964337;28;120969;-76
2022/10/12 05:24:34;;;;;;;;;;;;;;;14.36;69.08;102094.13;4947074;28;120612;-75
2022/10/12 05:27:01;;;;;;;;;;;;;;;14.37;69.51;102088.16;4959051;28;120267;-75
2022/10/12 05:29:29;;;;;;;;;;;;;;;14.37;69.13;102079.09;4951015;28;120423;-75
2022/10/12 05:31:55;;;;;;;;;;;;;;;14.38;69.10;102080.63;4966204;28;119554;-75
2022/10/12 05:34:37;;;;;;;;;;;;;;;14.38;69.34;102080.63;4961200;28;120304;-76
2022/10/12 05:37:08;;;;;;;;;;;;;;;14.39;69.40;102082.19;4992005;28;119792;-75
2022/10/12 05:39:36;;;;;;;;;;;;;;;14.38;69.14;102081.41;4978690;28;119554;-75
2022/10/12 05:42:01;;;;;;;;;;;;;;;14.39;68.97;102082.19;4975801;28;119576;-75
2022/10/12 05:44:27;;;;;;;;;;;;;;;14.37;69.05;102076.34;4975769;28;119511;-75
2022/10/12 05:46:53;;;;;;;;;;;;;;;14.37;68.97;102077.09;4957549;28;119507;-76
2022/10/12 05:49:18;;;;;;;;;;;;;;;14.39;69.10;102079.44;4959964;28;119874;-76
2022/10/12 05:51:44;;;;;;;;;;;;;;;14.40;69.26;102076.22;4970249;28;119509;-76
2022/10/12 05:54:09;;;;;;;;;;;;;;;14.41;69.09;102068.72;4959204;28;120028;-75
2022/10/12 05:56:44;;;;;;;;;;;;;;;14.40;69.13;102064.41;4953403;28;120700;-75
2022/10/12 05:59:10;;;;;;;;;;;;;;;14.41;68.98;102074.22;4959405;28;119418;-75
2022/10/12 06:01:35;;;;;;;;;;;;;;;14.39;69.11;102066.41;4959646;28;119399;-75
2022/10/12 06:04:01;;;;;;;;;;;;;;;14.40;69.38;102064.41;4977885;28;120536;-75
2022/10/12 06:06:27;;;;;;;;;;;;;;;14.42;69.17;102059.97;4975934;28;119910;-75
2022/10/12 06:08:53;;;;;;;;;;;;;;;14.43;68.97;102069.88;4956736;28;119554;-75
2022/10/12 06:11:18;;;;;;;;;;;;;;;14.45;69.05;102068.66;4971076;28;119244;-75
2022/10/12 06:13:44;;;;;;;;;;;;;;;14.43;68.99;102074.59;4967142;28;119426;-76
2022/10/12 06:16:09;;;;;;;;;;;;;;;14.44;68.93;102076.16;4938536;28;121006;-76
2022/10/12 06:18:35;;;;;;;;;;;;;;;14.45;68.91;102069.41;4963478;28;119976;-76
2022/10/12 06:21:00;;;;;;;;;;;;;;;14.45;68.80;102082.47;4973009;28;119984;-76
2022/10/12 06:23:26;;;;;;;;;;;;;;;14.45;69.01;102077.72;4985202;28;120208;-75
2022/10/12 06:25:52;;;;;;;;;;;;;;;14.48;69.64;102082.34;4956721;28;119677;-75
2022/10/12 06:28:19;;;;;;;;;;;;;;;14.50;68.69;102077.16;4973272;28;119764;-75
2022/10/12 06:30:45;;;;;;;;;;;;;;;14.53;68.94;102083.75;4954164;28;119543;-75
2022/10/12 06:33:11;;;;;;;;;;;;;;;14.53;68.93;102073.50;4972645;28;119734;-74
2022/10/12 06:35:36;;;;;;;;;;;;;;;14.53;68.78;102076.25;4951176;28;119995;-74
2022/10/12 06:38:17;;;;;;;;;;;;;;;14.53;68.56;102076.25;4964392;28;120251;-74
2022/10/12 06:40:42;;;;;;;;;;;;;;;14.53;68.83;102070.72;4972296;28;120434;-74
2022/10/12 06:43:08;;;;;;;;;;;;;;;14.54;68.75;102072.28;4969532;28;119899;-75
2022/10/12 06:45:34;;;;;;;;;;;;;;;14.53;68.40;102065.22;4968816;28;119691;-74
2022/10/12 06:48:00;;;;;;;;;;;;;;;14.52;68.60;102060.13;4968840;28;119787;-74
2022/10/12 06:50:25;;;;;;;;;;;;;;;14.51;68.03;102058.59;4981319;28;119955;-74
2022/10/12 06:52:51;;;;;;;;;;;;;;;14.49;68.30;102067.31;4969722;28;119768;-74
2022/10/12 06:55:18;;;;;;;;;;;;;;;14.49;68.50;102061.78;4957934;28;120709;-76
2022/10/12 06:57:43;;;;;;;;;;;;;;;14.49;68.09;102058.25;4969429;28;119508;-76
2022/10/12 07:00:29;;;;;;;;;;;;;;;14.46;68.12;102062.69;4956802;28;119894;-74
2022/10/12 07:02:55;;;;;;;;;;;;;;;14.45;67.99;102058.38;4970893;28;119923;-74
2022/10/12 07:05:21;;;;;;;;;;;;;;;14.43;68.23;102055.25;4952195;28;119348;-74
2022/10/12 07:07:47;;;;;;;;;;;;;;;14.42;68.25;102057.22;4969989;28;119776;-74
2022/10/12 07:10:39;;;;;;;;;;;;;;;14.43;68.53;102063.53;4950655;28;119983;-74
2022/10/12 07:13:04;;;;;;;;;;;;;;;14.41;68.31;102057.66;4960464;28;119398;-74
2022/10/12 07:15:30;;;;;;;;;;;;;;;14.38;67.62;102059.31;4971365;28;120028;-76
2022/10/12 07:18:21;;;;;;;;;;;;;;;14.39;68.00;102057.34;4996297;28;119944;-76
2022/10/12 07:20:46;;;;;;;;;;;;;;;14.37;68.04;102057.78;4963478;28;120174;-75
2022/10/12 07:23:12;;;;;;;;;;;;;;;14.38;67.97;102055.78;4969093;28;120158;-76
2022/10/12 07:25:37;;;;;;;;;;;;;;;14.36;67.98;102061.00;4973865;28;119917;-76
2022/10/12 07:28:05;;;;;;;;;;;;;;;14.36;67.70;102070.03;4955750;28;119777;-76
2022/10/12 07:30:30;;;;;;;;;;;;;;;14.35;67.52;102062.97;4975273;28;120205;-76
2022/10/12 07:32:56;;;;;;;;;;;;;;;14.36;67.98;102067.28;4958779;28;119812;-76
2022/10/12 07:35:22;;;;;;;;;;;;;;;14.41;68.17;102068.72;4979716;28;120238;-74
2022/10/12 07:38:19;;;;;;;;;;;;;;;14.45;68.06;102076.94;4948087;28;119678;-76
2022/10/12 07:40:45;;;;;;;;;;;;;;;14.48;68.01;102068.53;4961504;28;119734;-76
2022/10/12 07:43:10;;;;;;;;;;;;;;;14.53;67.98;102075.47;4958928;28;121493;-76
2022/10/12 07:45:36;;;;;;;;;;;;;;;14.58;68.17;102072.91;4953679;28;120195;-76
2022/10/12 07:48:24;;;;;;;;;;;;;;;14.67;68.15;102072.25;4955039;28;119487;-76
2022/10/12 07:50:50;;;;;;;;;;;;;;;14.74;68.15;102072.03;4951381;28;120661;-76
2022/10/12 07:53:16;;;;;;;;;;;;;;;14.83;68.30;102077.63;4951242;28;119533;-76
2022/10/12 07:56:06;;;;;;;;;;;;;;;14.94;67.99;102075.28;4973124;28;119609;-76
2022/10/12 07:58:32;;;;;;;;;;;;;;;15.02;67.82;102082.09;4978700;28;119901;-76
2022/10/12 08:01:07;;;;;;;;;;;;;;;15.10;67.92;102085.38;4972479;28;119447;-76
2022/10/12 08:03:33;;;;;;;;;;;;;;;15.18;67.74;102081.19;4976385;28;119759;-76
2022/10/12 08:05:58;;;;;;;;;;;;;;;15.26;67.68;102076.94;4951595;28;119710;-76
2022/10/12 08:08:24;;;;;;;;;;;;;;;15.33;67.34;102075.91;4950297;28;119964;-76
2022/10/12 08:10:49;;;;;;;;;;;;;;;15.41;67.78;102077.19;4968949;28;119440;-76
2022/10/12 08:13:15;;;;;;;;;;;;;;;15.50;67.65;102073.72;4955197;28;120218;-76
2022/10/12 08:15:46;;;;;;;;;;;;;;;15.54;67.00;102074.34;4972032;28;119677;-76
2022/10/12 08:18:12;;;;;;;;;;;;;;;15.62;67.23;102078.44;4967283;28;119930;-76
2022/10/12 08:20:38;;;;;;;;;;;;;;;15.70;67.00;102092.78;4967316;28;119541;-74
2022/10/12 08:23:07;;;;;;;;;;;;;;;15.75;66.93;102078.34;4978161;28;119705;-76
2022/10/12 08:25:33;;;;;;;;;;;;;;;15.79;66.75;102085.28;4970095;28;119574;-76
2022/10/12 08:27:59;;;;;;;;;;;;;;;15.85;66.69;102074.41;4976411;28;119874;-76
2022/10/12 08:30:25;;;;;;;;;;;;;;;15.89;66.20;102078.59;4953541;28;120875;-73
2022/10/12 08:32:52;;;;;;;;;;;;;;;15.94;66.19;102074.47;4955148;28;119562;-76
2022/10/12 08:35:50;;;;;;;;;;;;;;;16.01;66.02;102078.94;4933112;28;119957;-74
2022/10/12 08:38:37;;;;;;;;;;;;;;;16.07;65.99;102075.13;4945777;28;120120;-76
2022/10/12 08:41:29;;;;;;;;;;;;;;;16.14;65.97;102082.41;4952537;28;119789;-76
2022/10/12 08:44:07;;;;;;;;;;;;;;;16.21;65.63;102088.44;4961028;28;120188;-76
2022/10/12 08:46:32;;;;;;;;;;;;;;;16.27;65.67;102075.53;4965952;28;121249;-76
2022/10/12 08:49:17;;;;;;;;;;;;;;;16.35;65.42;102078.03;4933019;28;120120;-76
2022/10/12 08:51:48;;;;;;;;;;;;;;;16.41;65.59;102073.44;4961199;28;119510;-76
2022/10/12 08:54:18;;;;;;;;;;;;;;;16.47;65.22;102068.81;4966709;28;120396;-76
2022/10/12 08:56:45;;;;;;;;;;;;;;;16.51;65.04;102067.44;4966207;28;119862;-76
2022/10/12 08:59:12;;;;;;;;;;;;;;;16.57;64.91;102068.41;4962615;28;120237;-76
2022/10/12 09:01:56;;;;;;;;;;;;;;;16.63;64.70;102071.34;4949548;28;119850;-76
2022/10/12 09:04:50;;;;;;;;;;;;;;;16.70;64.70;102064.75;4965893;28;121369;-76
2022/10/12 09:07:23;;;;;;;;;;;;;;;16.76;64.21;102062.91;4943580;28;120037;-76
2022/10/12 09:09:52;;;;;;;;;;;;;;;16.79;63.84;102059.97;4962668;28;119974;-76
2022/10/12 09:12:25;;;;;;;;;;;;;;;16.85;63.64;102066.47;4964758;28;122198;-76
2022/10/12 09:14:54;;;;;;;;;;;;;;;16.93;63.59;102068.94;4947805;28;119858;-76
2022/10/12 09:17:28;;;;;;;;;;;;;;;17.01;63.76;102067.38;4961834;28;120005;-76
2022/10/12 09:20:12;;;;;;;;;;;;;;;17.07;62.92;102065.56;4964684;28;120557;-76
2022/10/12 09:22:38;;;;;;;;;;;;;;;17.16;62.77;102080.19;4964979;28;119748;-76
2022/10/12 09:25:10;;;;;;;;;;;;;;;17.26;62.81;102069.84;4944055;28;119775;-76
2022/10/12 09:27:36;;;;;;;;;;;;;;;17.38;62.48;102065.38;4948437;28;122486;-76
2022/10/12 09:30:02;;;;;;;;;;;;;;;17.49;62.12;102074.75;4933088;28;119997;-76
2022/10/12 09:32:32;;;;;;;;;;;;;;;17.59;61.53;102072.75;4945660;28;120703;-76
2022/10/12 09:34:58;;;;;;;;;;;;;;;17.57;61.18;102055.78;4961625;28;119952;-76
2022/10/12 09:37:26;;;;;;;;;;;;;;;17.72;60.88;102055.94;4960867;28;120146;-76
2022/10/12 09:39:52;;;;;;;;;;;;;;;17.76;59.92;102067.66;4963083;28;119831;-76
2022/10/12 09:42:18;;;;;;;;;;;;;;;17.78;59.50;102071.50;4965631;28;119963;-76
2022/10/12 09:44:46;;;;;;;;;;;;;;;17.82;59.45;102067.78;4962164;28;119934;-75
2022/10/12 09:47:20;;;;;;;;;;;;;;;17.82;59.45;102063.00;4961204;28;119907;-76
2022/10/12 09:49:46;;;;;;;;;;;;;;;17.88;59.62;102063.13;4952095;28;119826;-76
2022/10/12 09:52:14;;;;;;;;;;;;;;;17.93;59.40;102070.81;4960646;28;119815;-76
2022/10/12 09:54:44;;;;;;;;;;;;;;;17.93;58.47;102068.03;4959563;28;120022;-76
2022/10/12 09:57:17;;;;;;;;;;;;;;;17.91;58.25;102073.31;4945584;28;120189;-76
2022/10/12 09:59:43;;;;;;;;;;;;;;;17.88;58.08;102071.47;4965858;28;119942;-76
2022/10/12 10:02:13;;;;;;;;;;;;;;;17.88;57.97;102068.69;4964962;28;120229;-76
2022/10/12 10:04:40;;;;;;;;;;;;;;;17.91;58.02;102067.75;4964498;28;119823;-76
2022/10/12 10:07:19;;;;;;;;;;;;;;;17.99;58.15;102074.53;4967279;28;119824;-76
2022/10/12 10:09:45;;;;;;;;;;;;;;;18.07;58.14;102067.38;4965140;28;120523;-74
2022/10/12 10:12:25;;;;;;;;;;;;;;;18.18;57.94;102070.41;4960431;28;120569;-76
2022/10/12 10:14:52;;;;;;;;;;;;;;;18.29;57.99;102065.13;4957282;28;119945;-76
2022/10/12 10:17:28;;;;;;;;;;;;;;;18.36;57.69;102058.44;4961095;28;120580;-76
2022/10/12 10:19:55;;;;;;;;;;;;;;;18.39;56.84;102063.81;4943129;28;120274;-76
2022/10/12 10:22:21;;;;;;;;;;;;;;;18.38;56.43;102062.28;4942184;28;119706;-76
2022/10/12 10:24:51;;;;;;;;;;;;;;;18.36;56.39;102064.00;4957749;28;119992;-76
2022/10/12 10:27:30;;;;;;;;;;;;;;;18.35;56.43;102066.00;4957918;28;119919;-76
2022/10/12 10:30:14;;;;;;;;;;;;;;;18.35;56.60;102062.47;4941227;28;119567;-76
2022/10/12 10:32:40;;;;;;;;;;;;;;;18.35;56.66;102063.25;4962667;28;120063;-76
2022/10/12 10:35:12;;;;;;;;;;;;;;;18.39;57.00;102057.50;4957791;28;120357;-76
2022/10/12 10:37:44;;;;;;;;;;;;;;;18.40;56.91;102054.25;4958704;28;119976;-76
2022/10/12 10:40:36;;;;;;;;;;;;;;;18.41;56.91;102049.47;4957427;28;120023;-76
2022/10/12 10:43:04;;;;;;;;;;;;;;;18.40;56.30;102059.81;4955153;28;120726;-76
2022/10/12 10:45:37;;;;;;;;;;;;;;;18.39;56.53;102058.28;4922175;28;119995;-76
2022/10/12 10:48:14;;;;;;;;;;;;;;;18.42;56.81;102062.13;4971765;28;120242;-76
2022/10/12 10:50:41;;;;;;;;;;;;;;;18.44;56.54;102061.63;4975575;28;120221;-76
2022/10/12 10:53:18;;;;;;;;;;;;;;;18.46;56.95;102053.63;4956768;28;119976;-76
2022/10/12 10:55:48;;;;;;;;;;;;;;;18.48;57.02;102053.91;4962791;28;120368;-76
2022/10/12 10:58:26;;;;;;;;;;;;;;;18.46;56.63;102046.06;4956663;28;120032;-76
2022/10/12 11:00:54;;;;;;;;;;;;;;;18.47;56.70;102052.38;4958312;28;120048;-76
2022/10/12 11:03:46;;;;;;;;;;;;;;;18.44;56.59;102044.97;4958683;28;120088;-76
2022/10/12 11:06:15;;;;;;;;;;;;;;;18.42;56.81;102045.44;4953104;28;120743;-76
2022/10/12 11:08:42;;;;;;;;;;;;;;;18.41;56.90;102043.91;4965185;28;120098;-76
2022/10/12 11:11:17;;;;;;;;;;;;;;;18.40;56.71;102045.16;4951820;28;119992;-76
2022/10/12 11:13:46;;;;;;;;;;;;;;;18.33;55.73;102045.50;4964191;28;119681;-76
2022/10/12 11:16:31;;;;;;;;;;;;;;;18.26;55.58;102043.09;4945996;28;120778;-76
2022/10/12 11:18:58;;;;;;;;;;;;;;;18.26;55.65;102043.09;4955446;28;119759;-76
2022/10/12 11:21:36;;;;;;;;;;;;;;;18.28;55.82;102035.81;4936354;28;121901;-76
2022/10/12 11:24:14;;;;;;;;;;;;;;;18.33;55.28;102031.63;4948926;28;120478;-76
2022/10/12 11:27:36;;;;;;;;;;;;;;;18.33;55.27;102028.84;4970405;28;121836;-76
2022/10/12 11:30:14;;;;;;;;;;;;;;;18.42;55.52;102023.22;4940784;28;120053;-76
2022/10/12 11:32:42;;;;;;;;;;;;;;;18.50;55.57;102026.44;4963227;28;120127;-76
2022/10/12 11:35:27;;;;;;;;;;;;;;;18.57;55.30;102028.84;4965277;28;119753;-76
2022/10/12 11:37:56;;;;;;;;;;;;;;;18.62;55.21;102023.44;4948215;28;120593;-76
2022/10/12 11:40:24;;;;;;;;;;;;;;;18.64;54.26;102023.72;4964405;28;119988;-76
2022/10/12 11:42:52;;;;;;;;;;;;;;;18.65;53.96;102024.47;4967336;28;119865;-74
2022/10/12 11:45:38;;;;;;;;;;;;;;;18.66;53.74;102020.47;4964973;28;119590;-75
2022/10/12 11:48:10;;;;;;;;;;;;;;;18.69;53.59;102016.72;4945616;28;120124;-75
2022/10/12 11:50:38;;;;;;;;;;;;;;;18.74;54.14;102021.66;4978422;28;120193;-75
2022/10/12 11:53:13;;;;;;;;;;;;;;;18.80;54.15;102011.41;4965046;28;120161;-75
2022/10/12 11:55:50;;;;;;;;;;;;;;;18.83;53.95;102004.91;4962275;28;120164;-75
2022/10/12 11:58:20;;;;;;;;;;;;;;;18.88;54.01;102001.44;4982267;28;119890;-75
2022/10/12 12:00:58;;;;;;;;;;;;;;;18.91;53.78;102006.06;4962457;28;119839;-75
2022/10/12 12:03:23;;;;;;;;;;;;;;;18.94;53.59;102002.34;4972257;28;120005;-75
2022/10/12 12:05:49;;;;;;;;;;;;;;;18.92;53.41;102002.03;4957328;28;119537;-75
2022/10/12 12:08:22;;;;;;;;;;;;;;;18.86;52.83;102003.94;4965939;28;120151;-75
2022/10/12 12:11:02;;;;;;;;;;;;;;;18.81;53.02;102004.59;4950864;28;120725;-75
2022/10/12 12:13:28;;;;;;;;;;;;;;;18.76;52.50;101998.94;4967917;28;119679;-75
2022/10/12 12:15:56;;;;;;;;;;;;;;;18.78;53.31;101994.44;4971012;28;120309;-75
2022/10/12 12:18:30;;;;;;;;;;;;;;;18.92;53.44;101996.47;4960409;28;119873;-75
2022/10/12 12:21:02;;;;;;;;;;;;;;;19.11;53.72;101985.19;4973445;28;119768;-75
2022/10/12 12:23:27;;;;;;;;;;;;;;;19.22;52.85;101988.94;4953219;28;119608;-75
2022/10/12 12:26:12;;;;;;;;;;;;;;;19.23;52.32;101984.16;4950926;28;119447;-75
2022/10/12 12:28:48;;;;;;;;;;;;;;;19.20;51.89;101990.66;4955974;28;120124;-75
2022/10/12 12:31:34;;;;;;;;;;;;;;;19.16;52.03;101974.16;4973087;28;119976;-75
2022/10/12 12:34:02;;;;;;;;;;;;;;;19.21;51.99;101978.28;4966923;28;120190;-75
2022/10/12 12:36:31;;;;;;;;;;;;;;;19.25;51.71;101976.09;4967662;28;120433;-75
2022/10/12 12:38:56;;;;;;;;;;;;;;;19.21;51.72;101969.94;4965867;28;119825;-75
2022/10/12 12:41:52;;;;;;;;;;;;;;;19.15;51.27;101958.72;4947388;28;119763;-75
2022/10/12 12:44:36;;;;;;;;;;;;;;;19.14;50.76;101950.84;4964081;28;119598;-75